Ararangua, Brazil
Current Conditions -  °F | °C
As of 5:25 AM on Friday 24 Oct 2014 (Local Time) from SBCM Reporting Station
Moderate Fog Moderate Fog  
Wind Chill: 61°   Ceiling: Unl
Heat Index: 61°   Visibility: 0.56mi
Dew Point: 61°   Wind: 0mph
Humidity: 100%   Direction: NA
Pressure: 29.91"   Gusts: NA
Location:  28.93°S, 49.49°W
Report Text: SBCM 240725Z 00000KT 0900 FG SCT004 16/16 Q1013
Loading
Personal Weather Stations






























Interactive Weather Map
Tropical Storm Tracking
New forecast layout! Learn more

10-Day Weather Forecast

Advertisements
Track Severe Weather on mobile